createdAt,value
2022-11-09T00:00:37.976Z,99.50
2022-11-09T00:03:11.129Z,99.60
2022-11-09T00:05:43.047Z,99.60
2022-11-09T00:08:14.940Z,99.60
2022-11-09T00:10:46.767Z,99.70
2022-11-09T00:13:19.030Z,99.70
2022-11-09T00:15:51.106Z,99.80
2022-11-09T00:18:23.007Z,99.80
2022-11-09T00:20:55.305Z,99.80
2022-11-09T00:23:27.288Z,99.80
2022-11-09T00:26:08.098Z,99.90
2022-11-09T00:28:40.263Z,99.90
2022-11-09T00:31:15.953Z,99.90
2022-11-09T00:33:50.181Z,99.90
2022-11-09T00:36:26.024Z,99.90
2022-11-09T00:39:00.854Z,99.90
2022-11-09T00:41:32.801Z,99.90
2022-11-09T00:44:04.863Z,99.90
2022-11-09T00:46:37.278Z,99.90
2022-11-09T00:49:09.415Z,99.90
2022-11-09T00:51:41.322Z,99.90
2022-11-09T00:54:13.214Z,99.90
2022-11-09T00:56:45.120Z,99.90
2022-11-09T00:59:17.151Z,99.90
2022-11-09T01:01:49.051Z,99.90
2022-11-09T01:04:21.083Z,99.90
2022-11-09T01:06:53.014Z,99.90
2022-11-09T01:09:24.968Z,99.90
2022-11-09T01:11:56.889Z,99.90
2022-11-09T01:14:28.839Z,99.90
2022-11-09T01:17:00.730Z,99.90
2022-11-09T01:19:32.774Z,99.90
2022-11-09T01:22:04.721Z,99.90
2022-11-09T01:24:36.598Z,99.90
2022-11-09T01:27:08.763Z,99.90
2022-11-09T01:29:40.703Z,99.90
2022-11-09T01:32:12.578Z,99.90
2022-11-09T01:34:45.001Z,99.90
2022-11-09T01:37:17.179Z,99.90
2022-11-09T01:39:49.111Z,99.90
2022-11-09T01:42:25.792Z,99.90
2022-11-09T01:45:29.929Z,99.90
2022-11-09T01:48:30.727Z,99.90
2022-11-09T01:51:34.739Z,99.90
2022-11-09T01:54:17.877Z,99.90
2022-11-09T01:56:56.462Z,99.90
2022-11-09T01:59:36.967Z,99.90
2022-11-09T02:02:10.383Z,99.90
2022-11-09T02:04:55.242Z,99.90
2022-11-09T02:07:28.111Z,99.90
2022-11-09T02:10:14.629Z,99.90
2022-11-09T02:12:47.190Z,99.90
2022-11-09T02:15:19.476Z,99.90
2022-11-09T02:17:54.643Z,99.90
2022-11-09T02:20:28.609Z,99.90
2022-11-09T02:23:00.499Z,99.90
2022-11-09T02:25:32.397Z,99.90
2022-11-09T02:28:05.114Z,99.90
2022-11-09T02:30:37.329Z,99.90
2022-11-09T02:33:09.260Z,99.90
2022-11-09T02:35:41.109Z,99.90
2022-11-09T02:38:15.145Z,99.90
2022-11-09T02:40:52.567Z,99.90
2022-11-09T02:43:24.622Z,99.90
2022-11-09T02:45:56.528Z,99.90
2022-11-09T02:48:28.566Z,99.90
2022-11-09T02:51:00.464Z,99.90
2022-11-09T02:53:32.383Z,99.80
2022-11-09T02:56:04.548Z,99.70
2022-11-09T02:58:36.418Z,99.60
2022-11-09T03:01:08.441Z,99.50
2022-11-09T03:03:40.860Z,99.50
2022-11-09T03:06:13.253Z,99.40
2022-11-09T03:08:45.224Z,99.40
2022-11-09T03:11:17.787Z,99.40
2022-11-09T03:13:49.698Z,99.40
2022-11-09T03:16:21.580Z,99.40
2022-11-09T03:18:53.928Z,99.50
2022-11-09T03:21:26.000Z,99.50
2022-11-09T03:23:58.103Z,99.60
2022-11-09T03:26:30.025Z,99.70
2022-11-09T03:29:01.926Z,99.80
2022-11-09T03:31:33.806Z,99.80
2022-11-09T03:34:05.725Z,99.90
2022-11-09T03:36:37.625Z,99.90
2022-11-09T03:39:09.479Z,99.90
2022-11-09T03:41:41.392Z,99.90
2022-11-09T03:44:13.403Z,99.90
2022-11-09T03:46:45.263Z,99.90
2022-11-09T03:49:17.243Z,99.90
2022-11-09T03:51:49.207Z,99.90
2022-11-09T03:54:21.132Z,99.90
2022-11-09T03:56:53.108Z,99.90
2022-11-09T03:59:24.980Z,99.90
2022-11-09T04:01:56.975Z,99.90
2022-11-09T04:04:28.867Z,99.90
2022-11-09T04:07:00.810Z,99.90
2022-11-09T04:09:32.727Z,99.90
2022-11-09T04:12:05.720Z,99.90
2022-11-09T04:14:37.634Z,99.90
2022-11-09T04:17:09.570Z,99.90
2022-11-09T04:19:41.613Z,99.90
2022-11-09T04:22:13.603Z,99.90
2022-11-09T04:24:45.490Z,99.90
2022-11-09T04:27:17.437Z,99.90
2022-11-09T04:29:49.344Z,99.90
2022-11-09T04:32:21.306Z,99.90
2022-11-09T04:34:53.239Z,99.90
2022-11-09T04:37:25.121Z,99.90
2022-11-09T04:39:56.992Z,99.90
2022-11-09T04:42:28.900Z,99.90
2022-11-09T04:45:00.775Z,99.90
2022-11-09T04:47:32.688Z,99.90
2022-11-09T04:50:05.201Z,99.90
2022-11-09T04:52:37.285Z,99.90
2022-11-09T04:55:09.503Z,99.90
2022-11-09T04:57:41.459Z,99.90
2022-11-09T05:00:13.900Z,99.90
2022-11-09T05:02:45.835Z,99.90
2022-11-09T05:05:17.690Z,99.90
2022-11-09T05:07:49.623Z,99.90
2022-11-09T05:10:21.616Z,99.90
2022-11-09T05:13:04.973Z,99.90
2022-11-09T05:15:37.810Z,99.90
2022-11-09T05:18:10.765Z,99.90
2022-11-09T05:20:42.678Z,99.90
2022-11-09T05:23:32.952Z,99.90
2022-11-09T05:26:04.930Z,99.90
2022-11-09T05:28:36.836Z,99.90
2022-11-09T05:31:08.838Z,99.90
2022-11-09T05:33:40.883Z,99.90
2022-11-09T05:36:12.790Z,99.90
2022-11-09T05:38:45.404Z,99.90
2022-11-09T05:41:17.550Z,99.90
2022-11-09T05:43:50.088Z,99.90
2022-11-09T05:46:21.969Z,99.90
2022-11-09T05:48:53.884Z,99.90
2022-11-09T05:51:25.970Z,99.90
2022-11-09T05:53:57.901Z,99.90
2022-11-09T05:56:29.865Z,99.90
2022-11-09T05:59:01.776Z,99.90
2022-11-09T06:01:33.716Z,99.90
2022-11-09T06:04:05.609Z,99.90
2022-11-09T06:06:37.574Z,99.90
2022-11-09T06:09:09.655Z,99.90
2022-11-09T06:11:41.540Z,99.90
2022-11-09T06:14:13.530Z,99.90
2022-11-09T06:16:45.459Z,99.90
2022-11-09T06:19:17.357Z,99.90
2022-11-09T06:21:49.270Z,99.90
2022-11-09T06:24:21.177Z,99.90
2022-11-09T06:26:53.071Z,99.90
2022-11-09T06:29:25.065Z,99.90
2022-11-09T06:31:57.093Z,99.90
2022-11-09T06:34:30.416Z,99.90
2022-11-09T06:37:02.392Z,99.90
2022-11-09T06:39:34.321Z,99.90
2022-11-09T06:42:06.261Z,99.90
2022-11-09T06:44:38.169Z,99.90
2022-11-09T06:47:10.151Z,99.90
2022-11-09T06:49:42.067Z,99.90
2022-11-09T06:52:13.999Z,99.90
2022-11-09T06:54:45.870Z,99.90
2022-11-09T06:57:17.751Z,99.90
2022-11-09T06:59:49.741Z,99.90
2022-11-09T07:02:22.467Z,99.90
2022-11-09T07:04:54.635Z,99.90
2022-11-09T07:07:28.102Z,99.90
2022-11-09T07:10:00.546Z,99.90
2022-11-09T07:12:34.692Z,99.90
2022-11-09T07:15:07.629Z,99.90
2022-11-09T07:17:40.252Z,99.90
2022-11-09T07:20:14.878Z,99.90
2022-11-09T07:22:50.847Z,99.90
2022-11-09T07:25:25.079Z,99.90
2022-11-09T07:28:07.648Z,99.90
2022-11-09T07:30:40.320Z,99.90
2022-11-09T07:33:22.763Z,99.90
2022-11-09T07:35:54.956Z,99.90
2022-11-09T07:38:29.142Z,99.90
2022-11-09T07:41:02.071Z,99.90
2022-11-09T07:43:34.016Z,99.90
2022-11-09T07:46:06.210Z,99.90
2022-11-09T07:48:38.076Z,99.90
2022-11-09T07:51:10.150Z,99.90
2022-11-09T07:53:42.043Z,99.90
2022-11-09T07:56:14.093Z,99.90
2022-11-09T07:58:45.985Z,99.90
2022-11-09T08:01:17.848Z,99.90
2022-11-09T08:03:49.736Z,99.90
2022-11-09T08:06:24.314Z,99.90
2022-11-09T08:08:57.710Z,99.90
2022-11-09T08:11:29.679Z,99.90
2022-11-09T08:14:01.540Z,99.90
2022-11-09T08:16:37.514Z,99.90
2022-11-09T08:19:10.479Z,99.90
2022-11-09T08:21:42.380Z,99.90
2022-11-09T08:24:14.387Z,99.90
2022-11-09T08:26:46.310Z,99.90
2022-11-09T08:29:18.320Z,99.90
2022-11-09T08:31:53.227Z,99.90
2022-11-09T08:34:25.562Z,99.90
2022-11-09T08:37:00.791Z,99.90
2022-11-09T08:39:32.697Z,99.90
2022-11-09T08:42:04.618Z,99.90
2022-11-09T08:44:36.649Z,99.90
2022-11-09T08:47:08.519Z,99.90
2022-11-09T08:49:40.440Z,99.90
2022-11-09T08:52:12.400Z,99.90
2022-11-09T08:54:44.282Z,99.90
2022-11-09T08:57:19.388Z,99.90
2022-11-09T08:59:51.499Z,99.90
2022-11-09T09:02:23.375Z,99.90
2022-11-09T09:04:55.341Z,99.90
2022-11-09T09:07:27.451Z,99.90
2022-11-09T09:09:59.361Z,99.90
2022-11-09T09:12:31.737Z,99.90
2022-11-09T09:15:04.612Z,99.90
2022-11-09T09:17:36.633Z,99.90
2022-11-09T09:20:08.844Z,99.90
2022-11-09T09:22:40.874Z,99.90
2022-11-09T09:25:12.827Z,99.90
2022-11-09T09:27:45.359Z,99.90
2022-11-09T09:30:17.654Z,99.90
2022-11-09T09:32:49.591Z,99.90
2022-11-09T09:35:21.532Z,99.90
2022-11-09T09:37:54.350Z,99.90
2022-11-09T09:40:54.166Z,99.90
2022-11-09T09:43:43.473Z,99.90
2022-11-09T09:46:43.295Z,99.70
2022-11-09T09:49:28.735Z,99.70
2022-11-09T09:52:26.402Z,99.30
2022-11-09T09:55:27.369Z,99.20
2022-11-09T09:58:13.447Z,99.10
2022-11-09T10:00:45.429Z,98.90
2022-11-09T10:03:21.089Z,98.70
2022-11-09T10:06:39.440Z,98.20
2022-11-09T10:09:47.196Z,98.10
2022-11-09T10:12:50.440Z,97.70
2022-11-09T10:15:46.719Z,97.50
2022-11-09T10:18:41.241Z,97.10
2022-11-09T10:21:48.650Z,97.00
2022-11-09T10:24:32.192Z,97.00
2022-11-09T10:27:34.409Z,96.80
2022-11-09T10:30:19.873Z,96.70
2022-11-09T10:32:59.385Z,96.10
2022-11-09T10:35:40.582Z,95.90
2022-11-09T10:38:42.639Z,96.00
2022-11-09T10:41:39.243Z,95.50
2022-11-09T10:44:18.071Z,95.40
2022-11-09T10:47:12.589Z,95.50
2022-11-09T10:49:45.132Z,95.70
2022-11-09T10:52:47.351Z,95.70
2022-11-09T10:55:29.112Z,95.40
2022-11-09T10:58:33.328Z,95.30
2022-11-09T11:01:35.515Z,95.10
2022-11-09T11:04:34.416Z,95.00
2022-11-09T11:07:21.301Z,95.10
2022-11-09T11:09:53.510Z,95.20
2022-11-09T11:12:25.543Z,95.30
2022-11-09T11:14:58.567Z,95.30
2022-11-09T11:17:37.745Z,95.40
2022-11-09T11:20:36.954Z,95.40
2022-11-09T11:23:20.914Z,95.20
2022-11-09T11:25:56.173Z,95.20
2022-11-09T11:28:43.492Z,95.20
2022-11-09T11:31:21.276Z,95.20
2022-11-09T11:33:53.462Z,95.20
2022-11-09T11:36:37.691Z,95.20
2022-11-09T11:39:40.611Z,95.30
2022-11-09T11:42:33.560Z,95.40
2022-11-09T11:45:39.137Z,95.50
2022-11-09T11:48:26.254Z,95.70
2022-11-09T11:51:11.504Z,95.80
2022-11-09T11:54:23.040Z,95.90
2022-11-09T11:57:38.985Z,95.90
2022-11-09T12:00:15.564Z,95.90
2022-11-09T12:03:03.069Z,95.80
2022-11-09T12:05:40.864Z,95.40
2022-11-09T12:08:45.758Z,94.90
2022-11-09T12:11:54.359Z,94.70
2022-11-09T12:14:44.681Z,94.90
2022-11-09T12:17:47.580Z,94.10
2022-11-09T12:20:35.933Z,93.80
2022-11-09T12:23:31.723Z,93.60
2022-11-09T12:26:40.954Z,93.50
2022-11-09T12:29:21.716Z,93.40
2022-11-09T12:32:32.664Z,93.40
2022-11-09T12:35:25.916Z,93.50
2022-11-09T12:38:17.121Z,93.50
2022-11-09T12:41:06.377Z,93.50
2022-11-09T12:43:56.712Z,93.70
2022-11-09T12:46:40.281Z,93.40
2022-11-09T12:49:32.741Z,93.50
2022-11-09T12:52:08.805Z,93.50
2022-11-09T12:54:45.731Z,93.50
2022-11-09T12:57:29.042Z,93.40
2022-11-09T13:00:01.821Z,92.90
2022-11-09T13:02:54.193Z,92.70
2022-11-09T13:05:36.857Z,92.30
2022-11-09T13:08:29.373Z,91.80
2022-11-09T13:11:37.959Z,91.80
2022-11-09T13:14:22.214Z,91.80
2022-11-09T13:16:57.114Z,91.00
2022-11-09T13:19:35.246Z,90.90
2022-11-09T13:22:16.017Z,90.90
2022-11-09T13:24:55.678Z,91.00
2022-11-09T13:27:33.528Z,90.60
2022-11-09T13:30:24.001Z,90.10
2022-11-09T13:33:09.580Z,90.00
2022-11-09T13:35:41.544Z,90.00
2022-11-09T13:38:25.161Z,90.30
2022-11-09T13:41:03.042Z,90.10
2022-11-09T13:43:41.042Z,90.00
2022-11-09T13:46:38.692Z,89.90
2022-11-09T13:49:46.078Z,89.50
2022-11-09T13:52:46.911Z,89.70
2022-11-09T13:55:47.199Z,88.50
2022-11-09T13:58:36.743Z,88.00
2022-11-09T14:01:34.263Z,87.20
2022-11-09T14:04:23.620Z,86.30
2022-11-09T14:07:07.660Z,86.10
2022-11-09T14:10:23.578Z,85.20
2022-11-09T14:13:28.229Z,84.10
2022-11-09T14:16:22.297Z,83.90
2022-11-09T14:19:08.974Z,84.60
2022-11-09T14:21:49.350Z,84.40
2022-11-09T14:24:34.784Z,83.80
2022-11-09T14:27:09.618Z,83.80
2022-11-09T14:29:59.309Z,84.60
2022-11-09T14:32:35.732Z,85.70
2022-11-09T14:35:35.614Z,86.90
2022-11-09T14:38:42.335Z,88.30
2022-11-09T14:41:27.807Z,88.90
2022-11-09T14:44:01.043Z,89.90
2022-11-09T14:46:33.956Z,90.20
2022-11-09T14:49:09.440Z,90.50
2022-11-09T14:51:41.725Z,90.80
2022-11-09T14:54:17.459Z,91.10
2022-11-09T14:56:50.104Z,91.20
2022-11-09T14:59:35.883Z,91.10
2022-11-09T15:02:14.573Z,91.00
2022-11-09T15:05:07.179Z,90.70
2022-11-09T15:07:39.224Z,90.30
2022-11-09T15:10:20.884Z,90.00
2022-11-09T15:12:57.482Z,89.40
2022-11-09T15:15:33.565Z,89.90
2022-11-09T15:18:06.136Z,90.40
2022-11-09T15:20:38.052Z,90.80
2022-11-09T15:23:41.746Z,91.10
2022-11-09T15:26:27.641Z,91.40
2022-11-09T15:28:59.680Z,91.80
2022-11-09T15:31:31.657Z,92.00
2022-11-09T15:34:23.756Z,92.20
2022-11-09T15:36:56.243Z,92.50
2022-11-09T15:39:28.215Z,92.70
2022-11-09T15:42:00.109Z,92.80
2022-11-09T15:44:32.192Z,93.00
2022-11-09T15:47:31.540Z,93.10
2022-11-09T15:50:26.463Z,93.40
2022-11-09T15:52:58.373Z,93.40
2022-11-09T15:55:30.454Z,93.50
2022-11-09T15:58:02.444Z,93.60
2022-11-09T16:00:34.441Z,93.70
2022-11-09T16:03:06.761Z,93.80
2022-11-09T16:05:38.828Z,94.00
2022-11-09T16:08:11.104Z,94.10
2022-11-09T16:10:44.422Z,94.10
2022-11-09T16:13:16.317Z,94.30
2022-11-09T16:15:48.188Z,94.40
2022-11-09T16:18:25.700Z,94.30
2022-11-09T16:20:58.724Z,94.40
2022-11-09T16:23:30.962Z,94.30
2022-11-09T16:26:12.733Z,95.00
2022-11-09T16:28:45.371Z,94.80
2022-11-09T16:31:21.686Z,94.80
2022-11-09T16:34:01.932Z,94.70
2022-11-09T16:36:34.284Z,94.70
2022-11-09T16:39:12.771Z,94.70
2022-11-09T16:41:49.028Z,94.80
2022-11-09T16:44:24.103Z,94.80
2022-11-09T16:46:56.505Z,94.80
2022-11-09T16:49:28.713Z,94.80
2022-11-09T16:52:00.645Z,94.80
2022-11-09T16:54:32.545Z,94.90
2022-11-09T16:57:05.305Z,94.90
2022-11-09T16:59:37.230Z,95.00
2022-11-09T17:02:09.189Z,95.00
2022-11-09T17:04:41.199Z,95.10
2022-11-09T17:07:13.115Z,95.20
2022-11-09T17:09:45.163Z,95.60
2022-11-09T17:12:17.072Z,95.20
2022-11-09T17:14:48.963Z,95.30
2022-11-09T17:17:22.829Z,95.30
2022-11-09T17:19:54.969Z,95.30
2022-11-09T17:22:26.995Z,95.40
2022-11-09T17:24:59.003Z,95.40
2022-11-09T17:27:30.979Z,95.50
2022-11-09T17:30:03.153Z,95.90
2022-11-09T17:32:35.369Z,95.50
2022-11-09T17:35:07.498Z,95.60
2022-11-09T17:37:39.367Z,95.60
2022-11-09T17:40:11.690Z,95.70
2022-11-09T17:42:43.752Z,95.70
2022-11-09T17:45:15.793Z,95.70
2022-11-09T17:47:47.715Z,95.80
2022-11-09T17:50:21.293Z,95.80
2022-11-09T17:52:53.205Z,95.80
2022-11-09T17:55:25.113Z,95.90
2022-11-09T17:57:57.046Z,95.90
2022-11-09T18:00:28.931Z,95.90
2022-11-09T18:03:00.888Z,95.90
2022-11-09T18:05:32.758Z,96.00
2022-11-09T18:08:09.238Z,96.00
2022-11-09T18:10:44.239Z,96.10
2022-11-09T18:13:16.302Z,96.10
2022-11-09T18:15:48.192Z,96.10
2022-11-09T18:18:20.909Z,96.10
2022-11-09T18:20:53.077Z,96.10
2022-11-09T18:23:25.015Z,96.10
2022-11-09T18:26:00.386Z,96.10
2022-11-09T18:28:34.169Z,96.10
2022-11-09T18:31:10.439Z,96.10
2022-11-09T18:33:42.973Z,96.20
2022-11-09T18:36:18.655Z,96.30
2022-11-09T18:38:52.038Z,96.30
2022-11-09T18:41:25.575Z,96.40
2022-11-09T18:43:58.472Z,96.50
2022-11-09T18:46:33.146Z,96.50
2022-11-09T18:49:09.013Z,96.50
2022-11-09T18:51:43.920Z,96.60
2022-11-09T18:54:15.848Z,96.60
2022-11-09T18:56:47.834Z,97.10
2022-11-09T18:59:20.038Z,96.70
2022-11-09T19:01:52.500Z,96.80
2022-11-09T19:04:24.457Z,96.90
2022-11-09T19:06:56.397Z,96.90
2022-11-09T19:09:38.840Z,97.10
2022-11-09T19:12:11.245Z,97.10
2022-11-09T19:14:44.110Z,97.20
2022-11-09T19:17:16.843Z,97.20
2022-11-09T19:19:48.879Z,97.30
2022-11-09T19:22:20.890Z,97.30
2022-11-09T19:24:52.796Z,97.40
2022-11-09T19:27:25.128Z,97.50
2022-11-09T19:29:57.059Z,97.50
2022-11-09T19:32:28.938Z,97.60
2022-11-09T19:35:00.844Z,97.60
2022-11-09T19:37:32.731Z,97.60
2022-11-09T19:40:05.441Z,97.70
2022-11-09T19:42:37.337Z,97.70
2022-11-09T19:45:12.086Z,97.70
2022-11-09T19:47:44.025Z,97.80
2022-11-09T19:50:16.373Z,97.80
2022-11-09T19:52:48.324Z,97.90
2022-11-09T19:55:20.251Z,98.00
2022-11-09T19:57:52.221Z,98.00
2022-11-09T20:00:24.120Z,98.00
2022-11-09T20:02:58.788Z,98.00
2022-11-09T20:05:35.077Z,98.00
2022-11-09T20:08:07.015Z,98.00
2022-11-09T20:10:38.925Z,98.00
2022-11-09T20:13:10.991Z,98.00
2022-11-09T20:15:43.180Z,98.00
2022-11-09T20:18:15.788Z,98.10
2022-11-09T20:20:47.697Z,98.20
2022-11-09T20:23:21.766Z,98.30
2022-11-09T20:26:06.145Z,98.30
2022-11-09T20:28:38.153Z,98.40
2022-11-09T20:31:12.762Z,98.80
2022-11-09T20:33:44.744Z,98.50
2022-11-09T20:36:18.940Z,98.50
2022-11-09T20:38:50.950Z,98.60
2022-11-09T20:41:25.395Z,98.60
2022-11-09T20:43:57.754Z,98.60
2022-11-09T20:46:34.503Z,98.70
2022-11-09T20:49:09.167Z,98.80
2022-11-09T20:51:41.552Z,98.80
2022-11-09T20:54:13.456Z,98.80
2022-11-09T20:56:45.958Z,98.90
2022-11-09T20:59:17.914Z,98.90
2022-11-09T21:01:49.881Z,98.90
2022-11-09T21:04:21.766Z,99.00
2022-11-09T21:06:53.720Z,99.00
2022-11-09T21:09:25.599Z,99.10
2022-11-09T21:12:16.230Z,99.20
2022-11-09T21:14:48.159Z,99.20
2022-11-09T21:17:20.454Z,99.30
2022-11-09T21:19:52.408Z,99.30
2022-11-09T21:22:44.260Z,99.30
2022-11-09T21:25:34.659Z,99.40
2022-11-09T21:28:34.896Z,99.40
2022-11-09T21:31:06.994Z,99.50
2022-11-09T21:33:38.956Z,99.50
2022-11-09T21:36:13.963Z,99.60
2022-11-09T21:38:45.836Z,99.60
2022-11-09T21:41:36.182Z,99.70
2022-11-09T21:44:10.561Z,99.70
2022-11-09T21:46:44.205Z,99.80
2022-11-09T21:49:16.138Z,99.90
2022-11-09T21:51:48.214Z,99.90
2022-11-09T21:54:21.627Z,99.90
2022-11-09T21:56:53.868Z,99.90
2022-11-09T21:59:25.817Z,99.90
2022-11-09T22:01:57.905Z,99.90
2022-11-09T22:04:29.922Z,99.90
2022-11-09T22:07:01.898Z,99.90
2022-11-09T22:09:50.920Z,99.90
2022-11-09T22:12:44.503Z,99.90
2022-11-09T22:15:35.061Z,99.90
2022-11-09T22:18:07.077Z,99.90
2022-11-09T22:20:56.945Z,99.90
2022-11-09T22:23:28.946Z,99.90
2022-11-09T22:26:02.351Z,99.90
2022-11-09T22:28:34.354Z,99.90
2022-11-09T22:31:09.056Z,99.90
2022-11-09T22:33:40.937Z,99.90
2022-11-09T22:36:14.609Z,99.90
2022-11-09T22:38:47.455Z,99.90
2022-11-09T22:41:19.953Z,99.90
2022-11-09T22:43:52.992Z,99.90
2022-11-09T22:46:24.904Z,99.90
2022-11-09T22:48:56.857Z,99.90
2022-11-09T22:51:28.733Z,99.90
2022-11-09T22:54:00.729Z,99.90
2022-11-09T22:56:32.634Z,99.90
2022-11-09T22:59:04.631Z,99.90
2022-11-09T23:01:36.587Z,99.90
2022-11-09T23:04:10.419Z,99.90
2022-11-09T23:06:42.377Z,99.90
2022-11-09T23:09:14.406Z,99.90
2022-11-09T23:11:46.295Z,99.90
2022-11-09T23:14:38.213Z,99.90
2022-11-09T23:17:30.056Z,99.90
2022-11-09T23:20:01.940Z,99.90
2022-11-09T23:22:35.261Z,99.90
2022-11-09T23:25:28.052Z,99.90
2022-11-09T23:28:00.768Z,99.90
2022-11-09T23:30:32.720Z,99.90
2022-11-09T23:33:05.277Z,99.90
2022-11-09T23:35:37.832Z,99.90
2022-11-09T23:38:09.795Z,99.90
2022-11-09T23:40:41.678Z,99.90
2022-11-09T23:43:13.875Z,99.90
2022-11-09T23:45:46.799Z,99.90
2022-11-09T23:48:19.532Z,99.90
2022-11-09T23:50:51.457Z,99.90
2022-11-09T23:53:23.589Z,99.90
2022-11-09T23:56:03.770Z,99.90
2022-11-09T23:58:36.039Z,99.90
